sensor_id;sensor_type;location;lat;lon;timestamp;pressure;altitude;pressure_sealevel;temperature;humidity
47154;BME280;32907;41.412;2.164;2023-06-14T00:47:28;99604.53;;;25.63;45.34
47154;BME280;32907;41.412;2.164;2023-06-14T00:49:59;99587.41;;;25.38;44.76
47154;BME280;32907;41.412;2.164;2023-06-14T01:30:21;99632.50;;;25.53;44.54
47154;BME280;32907;41.412;2.164;2023-06-14T01:32:56;99761.13;;;26.35;44.47
47154;BME280;32907;41.412;2.164;2023-06-14T01:36:47;99567.22;;;25.18;44.00
47154;BME280;32907;41.412;2.164;2023-06-14T01:39:19;99580.78;;;25.11;43.86
47154;BME280;32907;41.412;2.164;2023-06-14T01:41:54;99613.97;;;25.50;44.29
47154;BME280;32907;41.412;2.164;2023-06-14T01:44:25;99822.22;;;26.72;44.11
47154;BME280;32907;41.412;2.164;2023-06-14T01:47:01;99816.25;;;26.70;43.98
47154;BME280;32907;41.412;2.164;2023-06-14T01:52:40;99765.81;;;26.34;43.41
47154;BME280;32907;41.412;2.164;2023-06-14T01:55:14;99804.78;;;26.52;43.52
47154;BME280;32907;41.412;2.164;2023-06-14T01:57:52;99811.47;;;26.67;43.48
47154;BME280;32907;41.412;2.164;2023-06-14T02:00:27;99666.66;;;25.67;43.63
47154;BME280;32907;41.412;2.164;2023-06-14T02:15:39;99655.38;;;25.57;43.75
47154;BME280;32907;41.412;2.164;2023-06-14T02:18:10;99669.28;;;25.76;43.06
47154;BME280;32907;41.412;2.164;2023-06-14T02:30:02;99690.97;;;25.81;43.38
47154;BME280;32907;41.412;2.164;2023-06-14T02:35:44;99680.09;;;25.85;42.77
47154;BME280;32907;41.412;2.164;2023-06-14T02:38:12;99587.94;;;25.16;42.71
47154;BME280;32907;41.412;2.164;2023-06-14T02:40:42;99626.72;;;25.42;42.74
47154;BME280;32907;41.412;2.164;2023-06-14T02:43:13;99660.47;;;25.71;42.66
47154;BME280;32907;41.412;2.164;2023-06-14T02:45:49;99793.53;;;26.57;41.99
47154;BME280;32907;41.412;2.164;2023-06-14T02:48:17;99727.66;;;26.17;42.21
47154;BME280;32907;41.412;2.164;2023-06-14T02:50:46;99629.41;;;25.54;42.38
47154;BME280;32907;41.412;2.164;2023-06-14T02:59:31;99634.16;;;25.42;41.80
47154;BME280;32907;41.412;2.164;2023-06-14T03:02:00;99627.78;;;25.37;42.07
47154;BME280;32907;41.412;2.164;2023-06-14T03:13:52;99707.72;;;25.76;41.96
47154;BME280;32907;41.412;2.164;2023-06-14T03:16:26;99637.31;;;25.28;41.81
47154;BME280;32907;41.412;2.164;2023-06-14T03:19:00;99688.34;;;25.45;42.06
47154;BME280;32907;41.412;2.164;2023-06-14T03:21:34;99670.50;;;25.51;41.89
47154;BME280;32907;41.412;2.164;2023-06-14T03:24:08;99693.41;;;25.71;41.91
47154;BME280;32907;41.412;2.164;2023-06-14T03:26:44;99608.28;;;25.02;41.60
47154;BME280;32907;41.412;2.164;2023-06-14T03:29:16;99881.03;;;26.67;41.85
47154;BME280;32907;41.412;2.164;2023-06-14T03:32:01;99868.78;;;26.65;41.37
47154;BME280;32907;41.412;2.164;2023-06-14T03:34:39;99856.28;;;26.67;41.71
47154;BME280;32907;41.412;2.164;2023-06-14T03:37:23;99707.13;;;25.71;41.80
47154;BME280;32907;41.412;2.164;2023-06-14T03:39:59;99669.63;;;25.34;41.97
47154;BME280;32907;41.412;2.164;2023-06-14T03:42:43;99634.38;;;25.08;42.06
47154;BME280;32907;41.412;2.164;2023-06-14T03:45:20;99857.78;;;26.65;42.06
47154;BME280;32907;41.412;2.164;2023-06-14T03:47:57;99641.66;;;25.17;41.61
47154;BME280;32907;41.412;2.164;2023-06-14T03:50:32;99774.03;;;26.18;41.52
47154;BME280;32907;41.412;2.164;2023-06-14T03:53:07;99893.72;;;26.72;41.90
47154;BME280;32907;41.412;2.164;2023-06-14T03:55:40;99708.88;;;25.63;41.87
47154;BME280;32907;41.412;2.164;2023-06-14T03:58:14;99668.00;;;25.46;41.54
47154;BME280;32907;41.412;2.164;2023-06-14T04:00:50;99680.13;;;25.45;41.42
47154;BME280;32907;41.412;2.164;2023-06-14T04:16:01;99678.31;;;25.36;41.33
47154;BME280;32907;41.412;2.164;2023-06-14T04:18:37;99753.25;;;25.65;41.71
47154;BME280;32907;41.412;2.164;2023-06-14T04:21:11;99881.97;;;26.59;41.06
47154;BME280;32907;41.412;2.164;2023-06-14T04:23:40;99741.81;;;25.63;41.51
47154;BME280;32907;41.412;2.164;2023-06-14T04:26:16;99724.69;;;25.54;41.52
47154;BME280;32907;41.412;2.164;2023-06-14T04:31:58;99885.97;;;26.62;41.58
47154;BME280;32907;41.412;2.164;2023-06-14T04:34:37;99705.72;;;25.49;41.43
47154;BME280;32907;41.412;2.164;2023-06-14T04:37:09;99637.38;;;25.03;41.48
47154;BME280;32907;41.412;2.164;2023-06-14T05:14:23;99829.78;;;25.91;42.22
47154;BME280;32907;41.412;2.164;2023-06-14T05:16:56;99774.78;;;25.63;42.72
47154;BME280;32907;41.412;2.164;2023-06-14T05:19:25;99804.06;;;25.83;42.52
47154;BME280;32907;41.412;2.164;2023-06-14T05:21:54;99830.16;;;26.05;42.79
47154;BME280;32907;41.412;2.164;2023-06-14T05:24:28;99854.75;;;26.14;42.81
47154;BME280;32907;41.412;2.164;2023-06-14T05:26:58;99686.72;;;25.16;42.69
47154;BME280;32907;41.412;2.164;2023-06-14T05:35:58;99926.38;;;26.73;42.34
47154;BME280;32907;41.412;2.164;2023-06-14T05:38:26;99732.00;;;25.50;42.30
47154;BME280;32907;41.412;2.164;2023-06-14T05:53:32;99921.78;;;26.49;42.91
47154;BME280;32907;41.412;2.164;2023-06-14T05:56:01;99709.00;;;25.14;43.49
47154;BME280;32907;41.412;2.164;2023-06-14T06:14:19;99760.16;;;25.47;43.24
47154;BME280;32907;41.412;2.164;2023-06-14T06:16:48;99725.59;;;25.05;43.58
47154;BME280;32907;41.412;2.164;2023-06-14T07:13:12;99873.38;;;25.80;42.63
47154;BME280;32907;41.412;2.164;2023-06-14T07:37:44;99826.28;;;25.29;43.24
47154;BME280;32907;41.412;2.164;2023-06-14T07:49:48;100032.59;;;26.78;42.61
47154;BME280;32907;41.412;2.164;2023-06-14T07:52:19;99782.38;;;25.29;42.71
47154;BME280;32907;41.412;2.164;2023-06-14T07:57:58;99754.16;;;25.04;42.49
47154;BME280;32907;41.412;2.164;2023-06-14T08:00:32;99876.91;;;25.93;42.53
47154;BME280;32907;41.412;2.164;2023-06-14T08:03:04;100024.09;;;26.83;42.68
47154;BME280;32907;41.412;2.164;2023-06-14T08:05:38;99808.91;;;25.25;42.59
47154;BME280;32907;41.412;2.164;2023-06-14T08:08:09;99788.00;;;25.21;42.52
47154;BME280;32907;41.412;2.164;2023-06-14T08:10:38;99814.75;;;25.36;42.32
47154;BME280;32907;41.412;2.164;2023-06-14T08:16:17;99887.13;;;25.92;42.19
47154;BME280;32907;41.412;2.164;2023-06-14T08:18:48;100004.91;;;26.59;42.49
47154;BME280;32907;41.412;2.164;2023-06-14T08:21:18;99783.97;;;25.30;42.28
47154;BME280;32907;41.412;2.164;2023-06-14T08:23:59;99851.66;;;25.63;42.03
47154;BME280;32907;41.412;2.164;2023-06-14T08:26:30;99815.06;;;25.47;42.36
47154;BME280;32907;41.412;2.164;2023-06-14T08:29:00;100022.13;;;26.84;42.47
47154;BME280;32907;41.412;2.164;2023-06-14T08:31:28;99785.47;;;25.28;42.41
47154;BME280;32907;41.412;2.164;2023-06-14T08:34:00;99886.53;;;25.87;42.06
47154;BME280;32907;41.412;2.164;2023-06-14T08:36:35;99953.16;;;26.36;42.36
47154;BME280;32907;41.412;2.164;2023-06-14T08:39:05;100022.84;;;26.81;42.05
47154;BME280;32907;41.412;2.164;2023-06-14T08:41:34;100033.72;;;26.89;42.46
47154;BME280;32907;41.412;2.164;2023-06-14T08:44:02;100030.50;;;26.87;42.10
47154;BME280;32907;41.412;2.164;2023-06-14T08:46:32;99999.28;;;26.67;42.17
47154;BME280;32907;41.412;2.164;2023-06-14T08:49:01;100025.00;;;26.87;42.04
47154;BME280;32907;41.412;2.164;2023-06-14T08:51:31;100000.00;;;26.64;42.32
47154;BME280;32907;41.412;2.164;2023-06-14T08:54:04;100006.03;;;26.70;42.04
47154;BME280;32907;41.412;2.164;2023-06-14T08:56:32;100005.56;;;26.68;42.18
47154;BME280;32907;41.412;2.164;2023-06-14T08:59:02;100018.50;;;26.80;41.99
47154;BME280;32907;41.412;2.164;2023-06-14T09:01:34;99985.69;;;26.59;41.92
47154;BME280;32907;41.412;2.164;2023-06-14T09:04:03;100034.50;;;26.90;41.46
47154;BME280;32907;41.412;2.164;2023-06-14T09:06:32;99974.81;;;26.50;41.47
47154;BME280;32907;41.412;2.164;2023-06-14T09:09:00;99974.03;;;26.49;41.57
47154;BME280;32907;41.412;2.164;2023-06-14T09:11:30;100000.28;;;26.75;41.59
47154;BME280;32907;41.412;2.164;2023-06-14T09:13:58;100008.97;;;26.77;41.61
47154;BME280;32907;41.412;2.164;2023-06-14T09:16:26;100018.00;;;26.90;41.26
47154;BME280;32907;41.412;2.164;2023-06-14T09:18:54;100026.47;;;26.97;41.50
47154;BME280;32907;41.412;2.164;2023-06-14T09:21:24;100010.44;;;26.87;41.61
47154;BME280;32907;41.412;2.164;2023-06-14T09:23:53;100020.41;;;26.91;41.71
47154;BME280;32907;41.412;2.164;2023-06-14T09:26:22;100046.59;;;27.01;41.53
47154;BME280;32907;41.412;2.164;2023-06-14T09:28:50;100054.50;;;27.02;41.47
47154;BME280;32907;41.412;2.164;2023-06-14T09:31:20;100058.91;;;27.03;41.42
47154;BME280;32907;41.412;2.164;2023-06-14T09:33:49;100055.31;;;27.03;41.67
47154;BME280;32907;41.412;2.164;2023-06-14T09:36:21;100040.09;;;26.93;41.82
47154;BME280;32907;41.412;2.164;2023-06-14T09:44:00;100058.91;;;27.03;41.91
47154;BME280;32907;41.412;2.164;2023-06-14T09:46:36;100017.72;;;26.79;41.81
47154;BME280;32907;41.412;2.164;2023-06-14T09:49:05;100049.34;;;27.01;41.94
47154;BME280;32907;41.412;2.164;2023-06-14T09:51:35;100055.53;;;27.10;41.53
47154;BME280;32907;41.412;2.164;2023-06-14T09:54:05;100042.41;;;27.03;41.49
47154;BME280;32907;41.412;2.164;2023-06-14T09:56:37;100064.78;;;27.18;41.36
47154;BME280;32907;41.412;2.164;2023-06-14T09:59:09;100051.81;;;27.18;41.62
47154;BME280;32907;41.412;2.164;2023-06-14T10:01:42;100059.84;;;27.23;41.09
47154;BME280;32907;41.412;2.164;2023-06-14T10:04:10;100058.81;;;27.28;41.12
47154;BME280;32907;41.412;2.164;2023-06-14T10:06:45;100052.03;;;27.25;40.62
47154;BME280;32907;41.412;2.164;2023-06-14T10:09:13;100062.63;;;27.39;40.98
47154;BME280;32907;41.412;2.164;2023-06-14T10:11:42;100061.22;;;27.45;40.67
47154;BME280;32907;41.412;2.164;2023-06-14T10:14:12;99979.31;;;26.98;41.07
47154;BME280;32907;41.412;2.164;2023-06-14T10:19:48;100049.59;;;27.52;40.56
47154;BME280;32907;41.412;2.164;2023-06-14T10:22:29;100046.56;;;27.57;40.64
47154;BME280;32907;41.412;2.164;2023-06-14T10:24:58;100055.38;;;27.63;40.70
47154;BME280;32907;41.412;2.164;2023-06-14T10:27:26;100011.75;;;27.49;41.00
47154;BME280;32907;41.412;2.164;2023-06-14T10:32:25;100054.34;;;27.83;40.80
47154;BME280;32907;41.412;2.164;2023-06-14T10:34:57;100048.13;;;27.86;40.38
47154;BME280;32907;41.412;2.164;2023-06-14T10:37:25;100049.81;;;27.91;40.49
47154;BME280;32907;41.412;2.164;2023-06-14T10:39:54;100041.47;;;27.87;40.81
47154;BME280;32907;41.412;2.164;2023-06-14T10:42:32;100014.63;;;27.68;40.22
47154;BME280;32907;41.412;2.164;2023-06-14T10:45:00;100033.56;;;27.85;40.38
47154;BME280;32907;41.412;2.164;2023-06-14T10:47:32;100027.88;;;27.78;40.28
47154;BME280;32907;41.412;2.164;2023-06-14T10:50:03;100058.63;;;27.96;39.74
47154;BME280;32907;41.412;2.164;2023-06-14T10:52:34;100051.50;;;27.95;39.68
47154;BME280;32907;41.412;2.164;2023-06-14T10:55:12;100054.00;;;28.00;39.94
47154;BME280;32907;41.412;2.164;2023-06-14T11:00:21;100061.81;;;27.98;40.20
47154;BME280;32907;41.412;2.164;2023-06-14T11:05:29;100062.88;;;28.09;40.10
47154;BME280;32907;41.412;2.164;2023-06-14T11:10:35;100065.34;;;28.14;39.86
47154;BME280;32907;41.412;2.164;2023-06-14T11:13:05;100072.91;;;28.18;40.30
47154;BME280;32907;41.412;2.164;2023-06-14T11:15:35;100074.53;;;28.19;40.22
47154;BME280;32907;41.412;2.164;2023-06-14T11:18:07;100056.84;;;28.04;39.83
47154;BME280;32907;41.412;2.164;2023-06-14T11:20:39;100046.88;;;27.99;39.78
47154;BME280;32907;41.412;2.164;2023-06-14T11:23:07;100025.81;;;27.91;39.63
47154;BME280;32907;41.412;2.164;2023-06-14T11:25:35;100039.06;;;28.01;39.32
47154;BME280;32907;41.412;2.164;2023-06-14T11:28:04;100077.34;;;28.22;39.81
47154;BME280;32907;41.412;2.164;2023-06-14T11:30:32;100074.59;;;28.22;39.61
47154;BME280;32907;41.412;2.164;2023-06-14T11:33:02;100080.09;;;28.22;38.96
47154;BME280;32907;41.412;2.164;2023-06-14T11:35:30;100098.44;;;28.14;38.79
47154;BME280;32907;41.412;2.164;2023-06-14T11:37:58;100020.47;;;27.82;38.79
47154;BME280;32907;41.412;2.164;2023-06-14T11:40:26;100092.41;;;28.25;38.53
47154;BME280;32907;41.412;2.164;2023-06-14T11:43:01;100077.63;;;28.17;38.63
47154;BME280;32907;41.412;2.164;2023-06-14T11:46:01;100087.31;;;28.27;38.76
47154;BME280;32907;41.412;2.164;2023-06-14T11:48:42;100058.06;;;28.06;38.46
47154;BME280;32907;41.412;2.164;2023-06-14T11:51:10;100008.66;;;27.82;38.35
47154;BME280;32907;41.412;2.164;2023-06-14T11:53:38;100052.13;;;28.04;38.50
47154;BME280;32907;41.412;2.164;2023-06-14T11:56:06;100051.94;;;28.13;38.80
47154;BME280;32907;41.412;2.164;2023-06-14T11:58:34;100044.38;;;28.10;38.69
47154;BME280;32907;41.412;2.164;2023-06-14T12:01:05;100082.22;;;28.29;38.64
47154;BME280;32907;41.412;2.164;2023-06-14T12:03:34;100054.69;;;28.13;39.13
47154;BME280;32907;41.412;2.164;2023-06-14T12:06:07;100085.91;;;28.33;38.73
47154;BME280;32907;41.412;2.164;2023-06-14T12:08:38;100056.03;;;28.19;38.98
47154;BME280;32907;41.412;2.164;2023-06-14T12:11:13;100078.44;;;28.33;38.58
47154;BME280;32907;41.412;2.164;2023-06-14T12:13:45;100063.22;;;28.24;38.62
47154;BME280;32907;41.412;2.164;2023-06-14T12:16:32;100044.03;;;28.11;39.12
47154;BME280;32907;41.412;2.164;2023-06-14T12:19:08;100040.84;;;28.09;38.74
47154;BME280;32907;41.412;2.164;2023-06-14T12:21:39;100076.19;;;28.39;38.98
47154;BME280;32907;41.412;2.164;2023-06-14T12:24:09;100074.69;;;28.41;38.64
47154;BME280;32907;41.412;2.164;2023-06-14T12:26:41;100047.22;;;28.29;38.88
47154;BME280;32907;41.412;2.164;2023-06-14T12:29:09;100070.78;;;28.42;38.82
47154;BME280;32907;41.412;2.164;2023-06-14T12:31:37;100010.25;;;27.99;38.84
47154;BME280;32907;41.412;2.164;2023-06-14T12:34:07;100057.19;;;28.34;39.04
47154;BME280;32907;41.412;2.164;2023-06-14T12:36:35;100033.97;;;28.19;38.70
47154;BME280;32907;41.412;2.164;2023-06-14T12:39:09;100042.97;;;28.32;38.96
47154;BME280;32907;41.412;2.164;2023-06-14T12:41:37;100068.75;;;28.39;38.58
47154;BME280;32907;41.412;2.164;2023-06-14T12:44:05;100061.34;;;28.43;38.38
47154;BME280;32907;41.412;2.164;2023-06-14T12:46:33;100023.47;;;28.25;38.77
47154;BME280;32907;41.412;2.164;2023-06-14T12:49:07;100053.50;;;28.46;38.36
47154;BME280;32907;41.412;2.164;2023-06-14T12:51:38;100043.91;;;28.39;38.46
47154;BME280;32907;41.412;2.164;2023-06-14T12:54:07;100048.19;;;28.37;39.14
47154;BME280;32907;41.412;2.164;2023-06-14T12:56:34;100026.13;;;28.21;38.88
47154;BME280;32907;41.412;2.164;2023-06-14T13:02:15;100052.63;;;28.41;39.05
47154;BME280;32907;41.412;2.164;2023-06-14T13:04:44;99834.53;;;26.94;39.06
47154;BME280;32907;41.412;2.164;2023-06-14T13:07:19;99858.44;;;26.90;39.03
47154;BME280;32907;41.412;2.164;2023-06-14T13:09:52;99971.06;;;27.74;39.11
47154;BME280;32907;41.412;2.164;2023-06-14T13:12:21;99932.06;;;27.40;38.99
47154;BME280;32907;41.412;2.164;2023-06-14T13:21:36;99862.34;;;26.89;39.29
47154;BME280;32907;41.412;2.164;2023-06-14T13:30:25;99912.44;;;27.10;39.18
47154;BME280;32907;41.412;2.164;2023-06-14T13:33:00;99864.44;;;26.64;39.60
47154;BME280;32907;41.412;2.164;2023-06-14T13:35:31;99949.66;;;27.20;39.61
47154;BME280;32907;41.412;2.164;2023-06-14T13:38:53;99845.00;;;26.57;39.29
47154;BME280;32907;41.412;2.164;2023-06-14T13:41:48;99964.09;;;27.17;39.38
47154;BME280;32907;41.412;2.164;2023-06-14T13:44:18;99907.59;;;26.91;39.19
47154;BME280;32907;41.412;2.164;2023-06-14T13:46:52;99881.91;;;26.56;39.10
47154;BME280;32907;41.412;2.164;2023-06-14T14:09:27;100069.00;;;28.03;39.08
47154;BME280;32907;41.412;2.164;2023-06-14T14:11:57;100074.91;;;28.01;38.99
47154;BME280;32907;41.412;2.164;2023-06-14T14:14:27;100075.41;;;28.07;38.83
47154;BME280;32907;41.412;2.164;2023-06-14T14:17:00;99888.59;;;26.86;39.16
47154;BME280;32907;41.412;2.164;2023-06-14T14:19:32;99904.53;;;27.09;38.97
47154;BME280;32907;41.412;2.164;2023-06-14T14:22:03;100049.66;;;27.83;38.55
47154;BME280;32907;41.412;2.164;2023-06-14T14:59:31;100057.28;;;28.06;38.53
47154;BME280;32907;41.412;2.164;2023-06-14T15:01:58;100073.28;;;28.16;38.29
47154;BME280;32907;41.412;2.164;2023-06-14T15:04:26;100046.78;;;27.96;37.74
47154;BME280;32907;41.412;2.164;2023-06-14T15:06:54;100078.00;;;28.15;38.02
47154;BME280;32907;41.412;2.164;2023-06-14T15:09:22;100046.78;;;27.96;38.04
47154;BME280;32907;41.412;2.164;2023-06-14T15:11:50;100049.91;;;27.94;37.65
47154;BME280;32907;41.412;2.164;2023-06-14T15:14:17;100049.63;;;27.99;37.98
47154;BME280;32907;41.412;2.164;2023-06-14T15:16:46;100061.91;;;28.02;37.94
47154;BME280;32907;41.412;2.164;2023-06-14T15:19:14;100056.28;;;27.98;37.62
47154;BME280;32907;41.412;2.164;2023-06-14T15:21:42;100061.91;;;28.02;37.24
47154;BME280;32907;41.412;2.164;2023-06-14T15:24:10;100069.44;;;28.05;37.21
47154;BME280;32907;41.412;2.164;2023-06-14T15:26:38;100067.84;;;28.04;37.26
47154;BME280;32907;41.412;2.164;2023-06-14T15:29:06;100075.50;;;28.10;37.54
47154;BME280;32907;41.412;2.164;2023-06-14T15:31:33;100074.59;;;28.06;37.56
47154;BME280;32907;41.412;2.164;2023-06-14T15:34:01;100083.34;;;28.08;37.62
47154;BME280;32907;41.412;2.164;2023-06-14T15:36:29;100068.13;;;27.99;37.56
47154;BME280;32907;41.412;2.164;2023-06-14T15:38:57;100059.06;;;27.98;37.59
47154;BME280;32907;41.412;2.164;2023-06-14T15:41:25;100082.63;;;28.11;37.51
47154;BME280;32907;41.412;2.164;2023-06-14T15:43:53;100093.63;;;28.11;37.79
47154;BME280;32907;41.412;2.164;2023-06-14T15:46:21;100060.81;;;27.91;37.89
47154;BME280;32907;41.412;2.164;2023-06-14T15:48:50;100061.63;;;27.91;37.77
47154;BME280;32907;41.412;2.164;2023-06-14T15:51:18;100071.78;;;28.03;37.80
47154;BME280;32907;41.412;2.164;2023-06-14T15:53:46;100076.06;;;28.00;37.63
47154;BME280;32907;41.412;2.164;2023-06-14T15:56:13;100086.53;;;28.10;37.92
47154;BME280;32907;41.412;2.164;2023-06-14T15:58:41;100074.72;;;27.94;38.42
47154;BME280;32907;41.412;2.164;2023-06-14T16:01:09;100063.16;;;27.88;38.69
47154;BME280;32907;41.412;2.164;2023-06-14T16:03:38;100088.75;;;28.05;38.16
47154;BME280;32907;41.412;2.164;2023-06-14T16:06:05;100087.25;;;28.07;37.79
47154;BME280;32907;41.412;2.164;2023-06-14T16:08:33;100084.84;;;28.06;38.09
47154;BME280;32907;41.412;2.164;2023-06-14T16:11:08;100089.53;;;28.05;37.41
47154;BME280;32907;41.412;2.164;2023-06-14T16:13:36;100090.72;;;28.04;37.30
47154;BME280;32907;41.412;2.164;2023-06-14T16:16:04;100085.28;;;28.08;37.80
47154;BME280;32907;41.412;2.164;2023-06-14T16:18:32;100076.06;;;28.00;37.25
47154;BME280;32907;41.412;2.164;2023-06-14T16:21:00;100079.59;;;28.01;37.68
47154;BME280;32907;41.412;2.164;2023-06-14T16:23:29;100056.66;;;27.97;37.64
47154;BME280;32907;41.412;2.164;2023-06-14T16:25:57;100094.78;;;28.10;37.74
47154;BME280;32907;41.412;2.164;2023-06-14T16:28:24;100088.13;;;28.11;38.30
47154;BME280;32907;41.412;2.164;2023-06-14T16:30:52;100084.31;;;28.00;38.45
47154;BME280;32907;41.412;2.164;2023-06-14T16:33:20;100095.97;;;28.09;38.48
47154;BME280;32907;41.412;2.164;2023-06-14T16:35:48;100082.38;;;28.01;38.23
47154;BME280;32907;41.412;2.164;2023-06-14T16:38:18;100099.88;;;28.08;37.89
47154;BME280;32907;41.412;2.164;2023-06-14T16:40:47;100102.63;;;28.08;38.25
47154;BME280;32907;41.412;2.164;2023-06-14T16:43:16;100095.69;;;27.99;38.37
47154;BME280;32907;41.412;2.164;2023-06-14T16:45:44;100074.97;;;27.89;37.96
47154;BME280;32907;41.412;2.164;2023-06-14T16:48:13;100112.06;;;28.07;38.01
47154;BME280;32907;41.412;2.164;2023-06-14T16:50:41;100079.84;;;27.80;37.80
47154;BME280;32907;41.412;2.164;2023-06-14T16:53:08;100093.75;;;27.83;38.25
47154;BME280;32907;41.412;2.164;2023-06-14T16:55:38;100111.69;;;27.93;38.23
47154;BME280;32907;41.412;2.164;2023-06-14T16:58:06;100124.41;;;27.98;38.36
47154;BME280;32907;41.412;2.164;2023-06-14T17:00:34;100122.91;;;28.00;38.69
47154;BME280;32907;41.412;2.164;2023-06-14T17:03:03;100103.25;;;27.86;38.57
47154;BME280;32907;41.412;2.164;2023-06-14T17:05:32;100128.41;;;28.00;39.05
47154;BME280;32907;41.412;2.164;2023-06-14T17:08:00;100028.69;;;27.35;39.52
47154;BME280;32907;41.412;2.164;2023-06-14T17:10:29;100125.66;;;28.00;39.20
47154;BME280;32907;41.412;2.164;2023-06-14T17:12:56;100010.03;;;27.13;39.31
47154;BME280;32907;41.412;2.164;2023-06-14T17:15:28;100129.22;;;28.01;39.63
47154;BME280;32907;41.412;2.164;2023-06-14T17:17:57;100124.03;;;27.99;40.05
47154;BME280;32907;41.412;2.164;2023-06-14T17:20:24;100075.31;;;27.72;40.15
47154;BME280;32907;41.412;2.164;2023-06-14T17:22:54;100120.75;;;27.94;40.84
47154;BME280;32907;41.412;2.164;2023-06-14T17:25:22;100109.44;;;27.83;40.62
47154;BME280;32907;41.412;2.164;2023-06-14T17:27:50;100126.72;;;27.96;41.45
47154;BME280;32907;41.412;2.164;2023-06-14T17:30:19;100120.75;;;27.94;41.12
47154;BME280;32907;41.412;2.164;2023-06-14T17:32:46;100125.56;;;27.97;41.11
47154;BME280;32907;41.412;2.164;2023-06-14T17:35:14;100134.19;;;27.95;40.88
47154;BME280;32907;41.412;2.164;2023-06-14T17:37:42;100135.78;;;27.96;40.97
47154;BME280;32907;41.412;2.164;2023-06-14T17:40:10;100147.59;;;27.97;40.76
47154;BME280;32907;41.412;2.164;2023-06-14T17:42:38;100127.69;;;27.87;40.81
47154;BME280;32907;41.412;2.164;2023-06-14T17:45:06;100076.34;;;27.51;40.78
47154;BME280;32907;41.412;2.164;2023-06-14T17:47:34;100098.06;;;27.69;41.26
47154;BME280;32907;41.412;2.164;2023-06-14T17:50:03;100120.47;;;27.83;40.96
47154;BME280;32907;41.412;2.164;2023-06-14T17:52:33;100115.88;;;27.87;41.49
47154;BME280;32907;41.412;2.164;2023-06-14T17:55:01;100122.78;;;27.81;41.15
47154;BME280;32907;41.412;2.164;2023-06-14T17:57:29;100124.31;;;27.78;41.59
47154;BME280;32907;41.412;2.164;2023-06-14T17:59:57;100166.53;;;27.98;41.68
47154;BME280;32907;41.412;2.164;2023-06-14T18:02:25;100107.50;;;27.68;41.73
47154;BME280;32907;41.412;2.164;2023-06-14T18:04:53;100122.69;;;27.77;41.60
47154;BME280;32907;41.412;2.164;2023-06-14T18:07:21;100123.06;;;27.76;41.48
47154;BME280;32907;41.412;2.164;2023-06-14T18:09:49;100090.72;;;27.45;41.80
47154;BME280;32907;41.412;2.164;2023-06-14T18:12:17;100180.66;;;27.97;42.46
47154;BME280;32907;41.412;2.164;2023-06-14T18:14:47;100120.78;;;27.66;42.35
47154;BME280;32907;41.412;2.164;2023-06-14T18:17:15;100162.16;;;27.81;42.93
47154;BME280;32907;41.412;2.164;2023-06-14T18:19:43;100187.78;;;27.98;42.83
47154;BME280;32907;41.412;2.164;2023-06-14T18:22:14;100163.75;;;27.82;42.80
47154;BME280;32907;41.412;2.164;2023-06-14T18:24:42;100168.94;;;27.84;43.22
47154;BME280;32907;41.412;2.164;2023-06-14T18:27:11;100150.84;;;27.71;43.38
47154;BME280;32907;41.412;2.164;2023-06-14T18:29:39;100194.38;;;27.93;43.47
47154;BME280;32907;41.412;2.164;2023-06-14T18:32:07;100190.47;;;27.94;43.79
47154;BME280;32907;41.412;2.164;2023-06-14T18:34:35;100202.63;;;27.93;43.69
47154;BME280;32907;41.412;2.164;2023-06-14T18:37:03;100175.84;;;27.78;43.79
47154;BME280;32907;41.412;2.164;2023-06-14T18:39:32;100179.50;;;27.82;44.22
47154;BME280;32907;41.412;2.164;2023-06-14T18:42:01;100202.63;;;27.93;44.61
47154;BME280;32907;41.412;2.164;2023-06-14T18:44:28;100178.84;;;27.73;44.61
47154;BME280;32907;41.412;2.164;2023-06-14T18:46:56;100215.25;;;27.94;44.60
47154;BME280;32907;41.412;2.164;2023-06-14T18:49:24;100164.03;;;27.65;44.64
47154;BME280;32907;41.412;2.164;2023-06-14T18:51:52;100201.44;;;27.78;44.60
47154;BME280;32907;41.412;2.164;2023-06-14T18:54:19;100218.69;;;27.91;44.63
47154;BME280;32907;41.412;2.164;2023-06-14T18:56:47;100211.88;;;27.85;45.00
47154;BME280;32907;41.412;2.164;2023-06-14T18:59:15;100224.56;;;27.90;44.44
47154;BME280;32907;41.412;2.164;2023-06-14T19:01:43;100209.47;;;27.83;44.73
47154;BME280;32907;41.412;2.164;2023-06-14T19:04:11;100199.56;;;27.54;44.50
47154;BME280;32907;41.412;2.164;2023-06-14T19:06:39;100233.63;;;27.90;44.52
47154;BME280;32907;41.412;2.164;2023-06-14T19:09:09;100209.28;;;27.76;44.11
47154;BME280;32907;41.412;2.164;2023-06-14T19:11:37;100229.28;;;27.89;44.02
47154;BME280;32907;41.412;2.164;2023-06-14T19:14:04;100200.34;;;27.67;43.85
47154;BME280;32907;41.412;2.164;2023-06-14T19:16:32;100239.78;;;27.83;44.16
47154;BME280;32907;41.412;2.164;2023-06-14T19:19:00;100188.00;;;27.49;44.07
47154;BME280;32907;41.412;2.164;2023-06-14T19:21:28;100225.69;;;27.73;43.81
47154;BME280;32907;41.412;2.164;2023-06-14T19:23:56;100259.22;;;27.91;44.02
47154;BME280;32907;41.412;2.164;2023-06-14T19:26:25;100269.47;;;27.90;44.22
47154;BME280;32907;41.412;2.164;2023-06-14T19:28:54;100246.47;;;27.70;44.30
47154;BME280;32907;41.412;2.164;2023-06-14T19:31:27;100264.47;;;27.80;44.72
47154;BME280;32907;41.412;2.164;2023-06-14T19:33:57;100279.25;;;27.87;44.32
47154;BME280;32907;41.412;2.164;2023-06-14T19:36:26;100285.56;;;27.88;44.45
47154;BME280;32907;41.412;2.164;2023-06-14T19:38:55;100245.88;;;27.65;44.84
47154;BME280;32907;41.412;2.164;2023-06-14T19:41:23;100251.63;;;27.72;44.54
47154;BME280;32907;41.412;2.164;2023-06-14T19:43:55;100276.28;;;27.80;44.62
47154;BME280;32907;41.412;2.164;2023-06-14T19:46:24;100259.09;;;27.71;44.96